メインページ
METAR-TAF:

METAR-TAF

空港 :

ウシュアイア, アルゼンチン

ウシュアイア国際空港

緯度: 54-48S, 経度: 068-19W, 海抜: 16m

現時点の気象観測

当レポートは24分前の21:00(UTC)に作成
西/南西の風 10kt
気温 5°C
湿度 52%
気圧 1011 hPa
視程10km以上
高度4000ftの千切れ雲あり

METAR: SAWH 202100Z 25010KT 9999 BKN040 05/M04 Q1011

時間: 18:24 (21:24 UTC)

予報

当レポートは4時間24分前の17:00(UTC)に作成
予報は20日の 18時(UTC)から 21日の 18時(UTC)まで有効
西/南西の風 20kt
視程10km以上
高度2000ftの千切れ雲あり
高度6000ftの千切れ雲あり
弱いにわか雪, 雨
21日の 01時(UTC)から 21日の 03時(UTC)まで徐々に
変向風 3kt
高度3000ftの雲は散在している
高度9000ftの雲は散在している
21日の 13時(UTC)から 21日の 15時(UTC)まで徐々に
北/北西の風 10kt

TAF: SAWH 201700Z 2018/2118 25020KT 9999 -SHSNRA BKN020 BKN060 TX05/2018Z TN02/2111Z BECMG 2101/2103 VRB03KT NSW SCT030 SCT090 BECMG 2113/2115 34010KT

4,000以上の空港の気象観測と天気予報(METAR報とTAF報)

利用可能な観測所は地図上に黄色い丸と赤い丸で示す。

丸の上にカーソルを重ねると観測所名を参照できる。

次にクリックすると気象観測と天気予報を参照できる。

マップの切り替え:黒色「×」印の緑ボタンをクリックして拡大、「-」印の緑ボタンをクリックして縮小、緑色の三角印をクリックして隣りの地図に切り替え


METAR-TAF: